Time;durP1;ratioP1;P1;durP2;ratioP2;P2;SDS_P1;SDS_P2;PMS_P1;PMS_P2;Temp;Humidity;BMP_temperature;BMP_pressure;BME280_temperature;BME280_humidity;BME280_pressure;Samples;Min_cycle;Max_cycle;Signal;HPM_P1;HPM_P2
2023/05/12 00:01:23;;;;;;;0.40;0.40;;;17.00;92.70;;;;;;4401589;32;20105;-73
2023/05/12 00:03:48;;;;;;;1.37;0.93;;;17.00;92.80;;;;;;4399220;32;20556;-73
2023/05/12 00:06:14;;;;;;;2.72;1.12;;;17.00;93.00;;;;;;4400993;32;20132;-73
2023/05/12 00:08:40;;;;;;;0.40;0.40;;;17.00;92.70;;;;;;4401191;32;20082;-73
2023/05/12 00:11:05;;;;;;;0.40;0.40;;;16.90;92.60;;;;;;4399296;32;20065;-73
2023/05/12 00:13:31;;;;;;;1.40;0.75;;;16.90;92.90;;;;;;4402321;32;20450;-72
2023/05/12 00:15:57;;;;;;;0.45;0.45;;;16.90;92.80;;;;;;4404356;32;20466;-73
2023/05/12 00:18:24;;;;;;;0.60;0.47;;;16.90;92.80;;;;;;4404552;32;20162;-72
2023/05/12 00:20:49;;;;;;;0.57;0.57;;;16.90;93.20;;;;;;4401479;32;20132;-73
2023/05/12 00:23:14;;;;;;;1.37;0.73;;;16.90;92.90;;;;;;4402382;32;20093;-73
2023/05/12 00:25:40;;;;;;;0.35;0.35;;;16.80;93.00;;;;;;4402725;32;20082;-72
2023/05/12 00:28:05;;;;;;;2.03;0.88;;;16.80;93.20;;;;;;4402652;32;20140;-73
2023/05/12 00:30:31;;;;;;;0.52;0.52;;;16.80;92.90;;;;;;4402695;32;20093;-73
2023/05/12 00:32:57;;;;;;;0.55;0.55;;;16.80;92.90;;;;;;4401996;32;20089;-73
2023/05/12 00:35:22;;;;;;;0.80;0.60;;;16.80;92.70;;;;;;4401100;32;20525;-72
2023/05/12 00:37:48;;;;;;;0.77;0.77;;;16.70;92.80;;;;;;4399598;32;20101;-73
2023/05/12 00:40:15;;;;;;;0.50;0.50;;;16.70;92.80;;;;;;4401745;32;20089;-74
2023/05/12 00:42:41;;;;;;;0.47;0.47;;;16.70;92.80;;;;;;4401157;32;20109;-72
2023/05/12 00:45:07;;;;;;;1.00;0.90;;;16.60;92.60;;;;;;4398072;32;20098;-73
2023/05/12 00:47:33;;;;;;;0.57;0.57;;;16.70;92.60;;;;;;4401443;32;20561;-73
2023/05/12 00:49:58;;;;;;;1.95;1.42;;;16.70;92.70;;;;;;4403484;32;20082;-72
2023/05/12 00:52:25;;;;;;;0.40;0.40;;;16.60;92.80;;;;;;4399437;32;20414;-73
2023/05/12 00:54:50;;;;;;;0.32;0.32;;;16.60;93.00;;;;;;4401501;32;20731;-72
2023/05/12 00:57:17;;;;;;;0.75;0.47;;;16.50;92.80;;;;;;4403380;32;20093;-73
2023/05/12 00:59:43;;;;;;;1.55;0.50;;;16.50;92.90;;;;;;4400942;32;20074;-73
2023/05/12 01:02:08;;;;;;;0.68;0.68;;;16.40;92.90;;;;;;4400513;32;20085;-72
2023/05/12 01:04:34;;;;;;;1.50;0.70;;;16.40;93.10;;;;;;4403646;32;20078;-73
2023/05/12 01:07:06;;;;;;;1.58;1.02;;;16.40;93.30;;;;;;4403364;32;20197;-72
2023/05/12 01:09:31;;;;;;;4.28;1.70;;;16.30;93.00;;;;;;4402565;32;20221;-73
2023/05/12 01:11:57;;;;;;;35.65;1.33;;;16.20;93.40;;;;;;4399554;32;20189;-73
2023/05/12 01:14:22;;;;;;;0.52;0.52;;;16.20;93.40;;;;;;4405542;32;20119;-73
2023/05/12 01:16:52;;;;;;;0.43;0.43;;;16.20;93.50;;;;;;4403778;32;20456;-72
2023/05/12 01:19:55;;;;;;;3.58;1.33;;;16.10;93.70;;;;;;4405955;32;20151;-72
2023/05/12 01:22:21;;;;;;;1.65;0.93;;;16.10;93.70;;;;;;4395826;32;20580;-72
2023/05/12 01:24:58;;;;;;;0.73;0.70;;;16.10;93.60;;;;;;4404197;32;20629;-72
2023/05/12 01:27:26;;;;;;;1.08;0.75;;;16.10;93.60;;;;;;4404389;32;20091;-72
2023/05/12 01:29:53;;;;;;;1.40;1.17;;;16.10;93.50;;;;;;4405908;32;20124;-73
2023/05/12 01:32:20;;;;;;;1.08;0.98;;;16.00;93.60;;;;;;4404951;32;20508;-72
2023/05/12 01:34:45;;;;;;;0.40;0.40;;;16.00;93.70;;;;;;4404249;32;20564;-73
2023/05/12 01:37:11;;;;;;;0.37;0.37;;;16.00;93.70;;;;;;4404112;32;20070;-73
2023/05/12 01:39:37;;;;;;;1.02;0.93;;;16.00;93.90;;;;;;4405311;32;20073;-73
2023/05/12 01:42:04;;;;;;;0.50;0.50;;;15.90;93.80;;;;;;4403099;32;20463;-73
2023/05/12 01:44:30;;;;;;;0.68;0.68;;;15.90;93.70;;;;;;4404292;32;20126;-73
2023/05/12 01:46:55;;;;;;;0.52;0.50;;;15.80;93.70;;;;;;4405593;32;20125;-73
2023/05/12 01:49:21;;;;;;;0.57;0.57;;;15.80;94.20;;;;;;4405415;32;20162;-73
2023/05/12 01:51:47;;;;;;;0.40;0.40;;;15.70;94.10;;;;;;4403745;32;20136;-73
2023/05/12 01:54:12;;;;;;;0.60;0.60;;;15.80;94.00;;;;;;4403850;32;20097;-73
2023/05/12 01:56:38;;;;;;;0.30;0.30;;;15.70;93.90;;;;;;4404307;32;20549;-73
2023/05/12 01:59:03;;;;;;;0.60;0.60;;;15.70;93.90;;;;;;4403071;32;20090;-73
2023/05/12 02:01:30;;;;;;;1.17;1.02;;;15.80;93.80;;;;;;4405093;32;20137;-73
2023/05/12 02:03:55;;;;;;;0.60;0.60;;;15.70;94.00;;;;;;4404559;32;20755;-73
2023/05/12 02:06:21;;;;;;;0.50;0.50;;;15.70;94.00;;;;;;4404162;32;20097;-73
2023/05/12 02:08:47;;;;;;;0.60;0.60;;;15.60;94.00;;;;;;4403847;32;20543;-73
2023/05/12 02:11:12;;;;;;;0.75;0.75;;;15.70;94.30;;;;;;4404192;32;20152;-73
2023/05/12 02:13:38;;;;;;;0.45;0.45;;;15.70;94.10;;;;;;4402312;32;20509;-74
2023/05/12 02:16:04;;;;;;;0.40;0.40;;;15.70;94.00;;;;;;4404228;32;20090;-74
2023/05/12 02:18:29;;;;;;;1.58;1.02;;;15.60;94.00;;;;;;4404151;32;20093;-72
2023/05/12 02:20:55;;;;;;;0.90;0.80;;;15.70;94.20;;;;;;4403996;32;20069;-73
2023/05/12 02:23:20;;;;;;;0.40;0.40;;;15.70;94.00;;;;;;4402771;32;20078;-73
2023/05/12 02:25:46;;;;;;;0.50;0.50;;;15.60;94.30;;;;;;4404184;32;20054;-74
2023/05/12 02:28:11;;;;;;;1.05;0.80;;;15.60;94.20;;;;;;4405141;32;20090;-73
2023/05/12 02:30:37;;;;;;;1.27;0.93;;;15.60;94.30;;;;;;4404078;32;20061;-73
2023/05/12 02:33:04;;;;;;;2.00;1.27;;;15.50;94.30;;;;;;4403591;32;20105;-73
2023/05/12 02:35:30;;;;;;;0.50;0.50;;;15.50;94.30;;;;;;4402693;32;20411;-72
2023/05/12 02:37:56;;;;;;;0.73;0.73;;;15.50;94.40;;;;;;4403472;32;20085;-73
2023/05/12 02:40:22;;;;;;;0.60;0.60;;;15.50;94.40;;;;;;4405009;32;20563;-73
2023/05/12 02:42:47;;;;;;;0.68;0.68;;;15.40;94.50;;;;;;4404775;32;21348;-74
2023/05/12 02:45:13;;;;;;;1.20;0.50;;;15.50;94.70;;;;;;4404604;32;20143;-73
2023/05/12 02:47:38;;;;;;;1.42;1.27;;;15.40;94.30;;;;;;4405979;32;20141;-73
2023/05/12 02:50:05;;;;;;;0.82;0.55;;;15.30;94.50;;;;;;4404197;32;20127;-73
2023/05/12 02:52:30;;;;;;;0.43;0.43;;;15.30;94.60;;;;;;4402821;32;20292;-72
2023/05/12 02:54:56;;;;;;;9.35;1.70;;;15.30;94.80;;;;;;4403949;32;20090;-73
2023/05/12 02:57:21;;;;;;;0.55;0.55;;;15.20;94.80;;;;;;4404896;32;20065;-73
2023/05/12 02:59:47;;;;;;;1.10;0.70;;;15.20;94.90;;;;;;4404959;32;20106;-73
2023/05/12 03:02:12;;;;;;;1.27;1.15;;;15.20;95.00;;;;;;4404175;32;20070;-73
2023/05/12 03:04:38;;;;;;;0.62;0.62;;;15.10;94.80;;;;;;4404306;32;20066;-73
2023/05/12 03:07:03;;;;;;;0.62;0.62;;;15.00;95.10;;;;;;4403286;32;20524;-73
2023/05/12 03:09:29;;;;;;;0.47;0.47;;;15.00;95.20;;;;;;4403359;32;20069;-73
2023/05/12 03:11:54;;;;;;;2.30;1.25;;;15.00;95.50;;;;;;4402595;32;20081;-73
2023/05/12 03:14:20;;;;;;;1.30;1.00;;;14.90;95.40;;;;;;4405176;32;20069;-73
2023/05/12 03:16:45;;;;;;;0.73;0.73;;;14.80;95.90;;;;;;4404832;32;20065;-74
2023/05/12 03:19:11;;;;;;;0.90;0.90;;;14.70;96.20;;;;;;4402803;32;20560;-73
2023/05/12 03:21:37;;;;;;;1.27;1.05;;;14.70;95.70;;;;;;4404001;32;20109;-73
2023/05/12 03:24:02;;;;;;;1.25;1.00;;;14.60;95.80;;;;;;4403695;32;20061;-73
2023/05/12 03:26:28;;;;;;;2.72;0.85;;;14.60;96.10;;;;;;4402945;32;20136;-73
2023/05/12 03:28:53;;;;;;;1.62;1.17;;;14.50;96.20;;;;;;4405882;32;20229;-73
2023/05/12 03:31:19;;;;;;;0.80;0.80;;;14.50;96.40;;;;;;4403263;32;20538;-73
2023/05/12 03:33:44;;;;;;;0.60;0.60;;;14.40;96.50;;;;;;4403500;32;20979;-74
2023/05/12 03:36:10;;;;;;;0.50;0.50;;;14.40;96.50;;;;;;4404618;32;20085;-73
2023/05/12 03:38:35;;;;;;;0.50;0.50;;;14.40;96.70;;;;;;4403418;32;20124;-73
2023/05/12 03:41:03;;;;;;;0.30;0.30;;;14.30;96.40;;;;;;4404403;32;20074;-73
2023/05/12 03:43:29;;;;;;;0.60;0.60;;;14.30;96.70;;;;;;4401549;32;20090;-74
2023/05/12 03:45:54;;;;;;;0.60;0.60;;;14.20;97.00;;;;;;4402853;32;20564;-73
2023/05/12 03:48:20;;;;;;;1.12;1.00;;;14.20;97.20;;;;;;4403397;32;20113;-73
2023/05/12 03:50:45;;;;;;;0.45;0.45;;;14.20;97.10;;;;;;4401632;32;20070;-72
2023/05/12 03:53:11;;;;;;;0.60;0.60;;;14.10;97.70;;;;;;4400871;32;20141;-74
2023/05/12 03:55:36;;;;;;;1.08;0.85;;;14.10;97.30;;;;;;4403329;32;20086;-74
2023/05/12 03:58:02;;;;;;;4.57;1.75;;;14.10;97.50;;;;;;4404526;32;20461;-74
2023/05/12 04:00:27;;;;;;;0.47;0.47;;;14.10;97.90;;;;;;4402430;32;20102;-73
2023/05/12 04:02:53;;;;;;;5.50;1.10;;;14.10;97.60;;;;;;4402149;32;20118;-72
2023/05/12 04:05:18;;;;;;;0.45;0.45;;;14.00;97.80;;;;;;4402949;32;20061;-72
2023/05/12 04:07:44;;;;;;;0.80;0.73;;;14.00;98.20;;;;;;4403061;32;20513;-72
2023/05/12 04:10:09;;;;;;;1.05;0.60;;;14.00;98.20;;;;;;4403261;32;20105;-72
2023/05/12 04:12:35;;;;;;;0.40;0.40;;;14.00;97.80;;;;;;4402345;32;20162;-72
2023/05/12 04:15:00;;;;;;;1.12;0.73;;;14.00;97.70;;;;;;4402922;32;20160;-72
2023/05/12 04:17:26;;;;;;;0.98;0.75;;;14.00;98.40;;;;;;4404451;32;20495;-73
2023/05/12 04:19:52;;;;;;;0.50;0.50;;;14.00;97.80;;;;;;4401832;32;20094;-72
2023/05/12 04:22:17;;;;;;;19.37;1.45;;;14.00;97.80;;;;;;4394199;32;20405;-73
2023/05/12 04:24:43;;;;;;;1.02;0.68;;;14.00;97.90;;;;;;4401869;32;20501;-73
2023/05/12 04:27:09;;;;;;;6.82;1.62;;;13.90;98.30;;;;;;4401455;32;20081;-72
2023/05/12 04:29:34;;;;;;;0.52;0.52;;;13.90;98.20;;;;;;4403963;32;20075;-72
2023/05/12 04:31:59;;;;;;;1.58;1.25;;;13.90;98.50;;;;;;4401920;32;20054;-73
2023/05/12 04:34:26;;;;;;;1.25;0.98;;;13.90;98.30;;;;;;4404402;32;20057;-73
2023/05/12 04:36:51;;;;;;;2.30;1.50;;;13.90;98.50;;;;;;4402374;32;20430;-73
2023/05/12 04:41:43;;;;;;;1.37;1.05;;;13.90;99.00;;;;;;4401711;32;20541;-73
2023/05/12 04:44:09;;;;;;;0.32;0.32;;;13.80;99.00;;;;;;4402372;32;20061;-72
2023/05/12 04:46:34;;;;;;;0.75;0.75;;;13.90;99.20;;;;;;4400402;32;20549;-72
2023/05/12 04:49:00;;;;;;;0.55;0.55;;;13.80;99.00;;;;;;4401037;32;20497;-72
2023/05/12 04:51:26;;;;;;;12.00;0.93;;;13.90;99.10;;;;;;4401424;32;20085;-72
2023/05/12 04:53:51;;;;;;;1.55;1.08;;;13.80;99.10;;;;;;4401803;32;20134;-72
2023/05/12 04:56:17;;;;;;;0.50;0.50;;;13.80;99.20;;;;;;4401659;32;20358;-73
2023/05/12 04:58:42;;;;;;;0.50;0.50;;;13.80;98.80;;;;;;4401175;32;20136;-72
2023/05/12 05:01:08;;;;;;;1.55;0.95;;;13.70;99.30;;;;;;4393471;32;20121;-72
2023/05/12 05:03:33;;;;;;;0.60;0.60;;;13.80;99.30;;;;;;4398438;32;20185;-72
2023/05/12 05:05:59;;;;;;;2.12;0.80;;;13.80;99.30;;;;;;4395359;32;20253;-73
2023/05/12 05:08:24;;;;;;;0.88;0.68;;;13.80;99.50;;;;;;4397946;32;20066;-73
2023/05/12 05:10:50;;;;;;;2.60;1.25;;;13.80;99.20;;;;;;4400395;32;20074;-71
2023/05/12 05:13:16;;;;;;;2.12;0.70;;;13.80;99.70;;;;;;4398677;32;20082;-73
2023/05/12 05:15:50;;;;;;;0.50;0.50;;;13.80;99.30;;;;;;4399179;32;20102;-73
2023/05/12 05:18:16;;;;;;;1.62;1.10;;;13.90;99.20;;;;;;4384153;32;20074;-73
2023/05/12 05:20:42;;;;;;;1.27;0.98;;;14.10;99.00;;;;;;4396050;32;20481;-73
2023/05/12 05:23:08;;;;;;;1.70;1.35;;;14.10;98.90;;;;;;4394719;32;20419;-73
2023/05/12 05:25:34;;;;;;;1.27;0.90;;;14.20;99.10;;;;;;4391472;32;20101;-73
2023/05/12 05:27:59;;;;;;;2.85;1.23;;;14.20;99.10;;;;;;4384849;32;20094;-73
2023/05/12 05:30:25;;;;;;;0.52;0.52;;;14.30;98.70;;;;;;4384693;32;20069;-72
2023/05/12 05:32:50;;;;;;;3.30;0.90;;;14.30;99.20;;;;;;4372991;32;20466;-73
2023/05/12 05:35:16;;;;;;;2.15;0.90;;;14.50;98.80;;;;;;4391105;32;20564;-73
2023/05/12 05:37:43;;;;;;;5.68;0.57;;;14.50;98.80;;;;;;4391018;32;20661;-74
2023/05/12 05:40:09;;;;;;;1.85;0.90;;;14.50;98.40;;;;;;4390366;32;21119;-73
2023/05/12 05:42:37;;;;;;;0.80;0.80;;;14.60;98.70;;;;;;4394429;32;20389;-73
2023/05/12 05:45:03;;;;;;;0.50;0.50;;;14.70;98.10;;;;;;4391092;32;20089;-72
2023/05/12 05:47:30;;;;;;;3.00;1.37;;;14.80;97.60;;;;;;4387381;32;20368;-74
2023/05/12 05:49:55;;;;;;;8.68;0.80;;;14.90;97.80;;;;;;4383974;32;20728;-73
2023/05/12 05:52:23;;;;;;;0.40;0.40;;;15.10;97.50;;;;;;4379213;32;20105;-74
2023/05/12 05:54:48;;;;;;;4.22;1.75;;;15.20;98.20;;;;;;4380496;32;20104;-74
2023/05/12 05:57:14;;;;;;;0.60;0.60;;;15.30;97.70;;;;;;4375862;32;20147;-74
2023/05/12 05:59:39;;;;;;;1.00;0.85;;;15.40;97.30;;;;;;4365252;32;20172;-75
2023/05/12 06:02:05;;;;;;;0.90;0.52;;;15.50;97.10;;;;;;4376935;32;20646;-74
2023/05/12 06:04:31;;;;;;;0.93;0.90;;;15.60;97.30;;;;;;4377342;32;20654;-74
2023/05/12 06:06:56;;;;;;;0.77;0.75;;;15.60;96.60;;;;;;4370710;32;20094;-75
2023/05/12 06:09:23;;;;;;;0.50;0.50;;;15.70;96.30;;;;;;4376136;32;20514;-75
2023/05/12 06:11:49;;;;;;;2.72;0.75;;;15.80;96.40;;;;;;4371809;32;20096;-75
2023/05/12 06:14:14;;;;;;;0.77;0.50;;;15.80;96.50;;;;;;4378358;32;20101;-74
2023/05/12 06:16:40;;;;;;;28.98;1.12;;;15.90;96.10;;;;;;4369568;32;20204;-74
2023/05/12 06:19:05;;;;;;;2.65;1.05;;;15.90;95.60;;;;;;4369688;32;20605;-73
2023/05/12 06:21:32;;;;;;;4.57;0.70;;;16.00;96.30;;;;;;4368392;32;20105;-73
2023/05/12 06:23:58;;;;;;;1.05;0.90;;;16.10;95.80;;;;;;4367542;32;20113;-74
2023/05/12 06:26:24;;;;;;;0.45;0.45;;;16.10;96.10;;;;;;4361250;32;20486;-74
2023/05/12 06:28:49;;;;;;;1.10;0.95;;;16.30;95.70;;;;;;4370593;32;20098;-74
2023/05/12 06:31:15;;;;;;;0.55;0.43;;;16.40;94.80;;;;;;4374546;32;20549;-74
2023/05/12 06:33:40;;;;;;;3.55;1.10;;;16.40;95.00;;;;;;4370327;32;20390;-73
2023/05/12 06:36:06;;;;;;;1.85;1.27;;;16.50;95.20;;;;;;4372613;32;20582;-73
2023/05/12 06:38:32;;;;;;;0.80;0.80;;;16.60;95.00;;;;;;4367947;32;20111;-74
2023/05/12 06:40:57;;;;;;;0.82;0.70;;;16.70;94.80;;;;;;4369791;32;20670;-74
2023/05/12 06:43:23;;;;;;;1.75;1.15;;;16.70;95.50;;;;;;4376105;32;20098;-74
2023/05/12 06:45:48;;;;;;;0.50;0.50;;;16.80;95.00;;;;;;4373906;32;20656;-74
2023/05/12 06:48:14;;;;;;;0.95;0.85;;;16.90;94.60;;;;;;4381893;32;20090;-74
2023/05/12 06:50:41;;;;;;;0.40;0.40;;;17.00;94.70;;;;;;4377811;32;20085;-74
2023/05/12 06:53:06;;;;;;;0.85;0.75;;;17.10;93.90;;;;;;4367832;32;21925;-73
2023/05/12 06:55:33;;;;;;;0.77;0.75;;;17.20;93.40;;;;;;4355405;32;21238;-75
2023/05/12 06:57:58;;;;;;;0.50;0.50;;;17.30;93.60;;;;;;4366376;32;20156;-74
2023/05/12 07:00:25;;;;;;;0.40;0.40;;;17.40;93.80;;;;;;4372567;32;20081;-74
2023/05/12 07:02:51;;;;;;;5.35;2.25;;;17.50;93.10;;;;;;4355424;32;20519;-74
2023/05/12 07:05:17;;;;;;;1.95;0.93;;;17.60;93.00;;;;;;4357020;32;20685;-75
2023/05/12 07:07:43;;;;;;;1.08;0.90;;;17.60;92.50;;;;;;4365424;32;20613;-76
2023/05/12 07:10:09;;;;;;;0.50;0.50;;;17.70;91.90;;;;;;4375007;32;20113;-76
2023/05/12 07:12:36;;;;;;;3.50;0.73;;;17.80;92.20;;;;;;4380214;32;20290;-75
2023/05/12 07:15:01;;;;;;;1.05;0.95;;;17.80;91.90;;;;;;4372278;32;20755;-76
2023/05/12 07:17:27;;;;;;;2.28;0.50;;;17.80;92.00;;;;;;4368526;32;20098;-75
2023/05/12 07:19:53;;;;;;;2.00;0.93;;;17.90;91.60;;;;;;4365401;32;21443;-76
2023/05/12 07:22:19;;;;;;;0.73;0.62;;;18.10;92.10;;;;;;4372441;32;20085;-76
2023/05/12 07:24:44;;;;;;;9.65;0.65;;;18.20;91.80;;;;;;4366580;32;20125;-76
2023/05/12 07:27:10;;;;;;;1.35;0.85;;;18.30;91.60;;;;;;4376257;32;20094;-77
2023/05/12 07:29:36;;;;;;;1.00;0.98;;;18.50;91.60;;;;;;4381702;32;20110;-75
2023/05/12 07:32:01;;;;;;;0.60;0.60;;;18.60;91.60;;;;;;4379834;32;20255;-74
2023/05/12 07:34:27;;;;;;;0.70;0.70;;;18.80;90.10;;;;;;4361512;32;20097;-74
2023/05/12 07:36:52;;;;;;;1.60;0.88;;;18.90;90.60;;;;;;4370668;32;21491;-73
2023/05/12 07:39:22;;;;;;;2.47;0.57;;;19.10;89.70;;;;;;4372808;32;20160;-75
2023/05/12 07:41:49;;;;;;;1.55;1.00;;;19.20;88.50;;;;;;4367276;32;20869;-76
2023/05/12 07:44:15;;;;;;;0.57;0.57;;;19.40;89.00;;;;;;4374715;32;20181;-76
2023/05/12 07:46:40;;;;;;;0.50;0.50;;;19.40;84.40;;;;;;4377456;32;20363;-74
2023/05/12 07:49:06;;;;;;;0.40;0.40;;;19.40;85.20;;;;;;4368857;32;20204;-74
2023/05/12 07:51:31;;;;;;;0.45;0.45;;;19.50;86.10;;;;;;4363905;32;20484;-75
2023/05/12 07:53:57;;;;;;;0.52;0.52;;;19.70;86.90;;;;;;4362055;32;21463;-76
2023/05/12 07:56:23;;;;;;;7.07;1.85;;;19.80;85.30;;;;;;4361236;32;20777;-75
2023/05/12 07:58:48;;;;;;;0.73;0.70;;;19.80;84.80;;;;;;4373707;32;20101;-75
2023/05/12 08:01:14;;;;;;;1.10;0.60;;;19.80;84.40;;;;;;4367675;32;20189;-74
2023/05/12 08:03:39;;;;;;;0.32;0.32;;;20.00;86.00;;;;;;4361958;32;20089;-75
2023/05/12 08:06:06;;;;;;;0.70;0.60;;;20.30;85.40;;;;;;4363065;32;20148;-74
2023/05/12 08:08:32;;;;;;;1.08;0.70;;;20.20;81.20;;;;;;4366320;32;20113;-76
2023/05/12 08:10:57;;;;;;;0.55;0.55;;;20.20;82.70;;;;;;4363060;32;20854;-76
2023/05/12 08:13:23;;;;;;;0.40;0.40;;;20.30;80.90;;;;;;4360053;32;20833;-75
2023/05/12 08:15:49;;;;;;;0.62;0.60;;;20.20;80.70;;;;;;4365097;32;20675;-74
2023/05/12 08:18:15;;;;;;;0.50;0.50;;;20.30;80.70;;;;;;4354767;32;21821;-75
2023/05/12 08:20:40;;;;;;;3.33;1.12;;;20.30;80.80;;;;;;4342859;32;20296;-76
2023/05/12 08:23:06;;;;;;;0.50;0.50;;;20.30;80.50;;;;;;4348958;32;20097;-76
2023/05/12 08:25:33;;;;;;;1.95;0.90;;;20.40;81.30;;;;;;4349220;32;20172;-75
2023/05/12 08:27:59;;;;;;;1.95;0.80;;;20.40;79.60;;;;;;4346303;32;20118;-74
2023/05/12 08:30:25;;;;;;;0.55;0.40;;;20.40;80.00;;;;;;4351260;32;20140;-75
2023/05/12 08:32:53;;;;;;;8.77;2.17;;;20.60;80.80;;;;;;4357667;32;21317;-77
2023/05/12 08:35:19;;;;;;;2.72;1.37;;;20.60;78.80;;;;;;4353925;32;20725;-77
2023/05/12 08:37:44;;;;;;;3.30;0.85;;;20.60;76.60;;;;;;4358144;32;20248;-77
2023/05/12 08:40:16;;;;;;;0.43;0.43;;;20.60;77.30;;;;;;4365247;32;20779;-77
2023/05/12 08:42:48;;;;;;;0.60;0.60;;;20.80;77.40;;;;;;4370684;32;20101;-75
2023/05/12 08:45:14;;;;;;;0.90;0.70;;;20.90;77.10;;;;;;4370950;32;20093;-75
2023/05/12 08:47:41;;;;;;;2.20;0.70;;;21.00;76.70;;;;;;4363305;32;20525;-76
2023/05/12 08:50:08;;;;;;;0.80;0.77;;;21.00;75.50;;;;;;4369021;32;20131;-74
2023/05/12 08:52:35;;;;;;;0.40;0.40;;;21.10;75.60;;;;;;4363046;32;20112;-75
2023/05/12 08:55:02;;;;;;;0.93;0.85;;;21.20;77.80;;;;;;4361952;32;21524;-75
2023/05/12 08:57:28;;;;;;;0.30;0.30;;;21.30;74.80;;;;;;4367818;32;20106;-76
2023/05/12 08:59:55;;;;;;;0.50;0.50;;;21.30;74.60;;;;;;4374066;32;20876;-76
2023/05/12 09:02:22;;;;;;;0.40;0.40;;;21.40;75.50;;;;;;4374898;32;20094;-76
2023/05/12 09:04:48;;;;;;;4.03;0.70;;;21.60;73.90;;;;;;4363593;32;20171;-76
2023/05/12 09:07:15;;;;;;;0.50;0.50;;;21.70;72.10;;;;;;4371411;32;20896;-76
2023/05/12 09:09:44;;;;;;;0.30;0.30;;;21.60;71.10;;;;;;4373472;32;20148;-76
2023/05/12 09:12:13;;;;;;;0.40;0.40;;;21.60;71.90;;;;;;4369642;32;20502;-75
2023/05/12 09:14:40;;;;;;;0.70;0.45;;;21.70;70.20;;;;;;4363671;32;20082;-76
2023/05/12 09:17:06;;;;;;;1.85;1.00;;;21.70;69.30;;;;;;4363469;32;20093;-76
2023/05/12 09:19:33;;;;;;;0.60;0.57;;;21.60;69.80;;;;;;4362755;32;20078;-76
2023/05/12 09:21:59;;;;;;;3.30;0.80;;;21.60;69.20;;;;;;4349722;32;20402;-74
2023/05/12 09:24:35;;;;;;;0.98;0.77;;;21.80;68.40;;;;;;4364029;32;20347;-76
2023/05/12 09:27:00;;;;;;;0.60;0.60;;;21.90;67.80;;;;;;4371845;32;20113;-76
2023/05/12 09:29:26;;;;;;;0.30;0.30;;;22.00;66.80;;;;;;4367983;32;20813;-77
2023/05/12 09:31:53;;;;;;;4.37;1.48;;;22.20;68.20;;;;;;4371414;32;20461;-76
2023/05/12 09:34:29;;;;;;;0.55;0.55;;;22.30;68.60;;;;;;4362075;32;20515;-75
2023/05/12 09:36:57;;;;;;;0.40;0.40;;;22.40;70.50;;;;;;4355619;32;20102;-75
2023/05/12 09:39:23;;;;;;;0.55;0.55;;;22.40;66.90;;;;;;4363709;32;20122;-75
2023/05/12 09:41:50;;;;;;;0.60;0.60;;;22.40;68.10;;;;;;4369762;32;20218;-74
2023/05/12 09:44:16;;;;;;;0.40;0.40;;;22.40;67.60;;;;;;4369911;32;20802;-74
2023/05/12 09:46:41;;;;;;;0.90;0.65;;;22.40;66.10;;;;;;4368896;32;20108;-74
2023/05/12 09:49:07;;;;;;;0.45;0.45;;;22.40;68.30;;;;;;4367584;32;21380;-76
2023/05/12 09:51:32;;;;;;;0.45;0.45;;;22.50;67.90;;;;;;4363409;32;20097;-79
2023/05/12 09:53:59;;;;;;;0.80;0.80;;;22.70;65.80;;;;;;4365236;32;20144;-74
2023/05/12 09:56:27;;;;;;;0.30;0.30;;;22.70;64.10;;;;;;4369667;32;20105;-74
2023/05/12 09:58:55;;;;;;;0.30;0.30;;;23.00;63.10;;;;;;4365462;32;20637;-75
2023/05/12 10:01:22;;;;;;;0.57;0.57;;;23.00;62.20;;;;;;4362146;32;21514;-73
2023/05/12 10:03:51;;;;;;;0.45;0.45;;;22.90;63.00;;;;;;4367171;32;21029;-76
2023/05/12 10:06:27;;;;;;;0.40;0.40;;;22.90;62.80;;;;;;4365775;32;20093;-76
2023/05/12 10:09:17;;;;;;;0.30;0.30;;;22.90;64.30;;;;;;4367030;32;20132;-74
2023/05/12 10:11:45;;;;;;;2.10;0.62;;;23.00;63.70;;;;;;4357690;32;20689;-75
2023/05/12 10:14:12;;;;;;;0.45;0.45;;;23.10;62.90;;;;;;4376614;32;20105;-76
2023/05/12 10:16:39;;;;;;;2.83;0.75;;;23.10;64.50;;;;;;4365246;32;20619;-75
2023/05/12 10:19:05;;;;;;;1.25;0.82;;;23.40;64.50;;;;;;4380557;32;20110;-76
2023/05/12 10:21:32;;;;;;;0.75;0.57;;;23.70;63.70;;;;;;4382537;32;20226;-76
2023/05/12 10:23:58;;;;;;;0.40;0.40;;;23.90;64.40;;;;;;4385772;32;20160;-77
2023/05/12 10:26:24;;;;;;;0.30;0.30;;;24.30;62.80;;;;;;4388429;32;20082;-76
2023/05/12 10:28:51;;;;;;;4.60;1.37;;;24.40;63.90;;;;;;4388422;32;20074;-77
2023/05/12 10:31:17;;;;;;;0.20;0.20;;;24.30;63.30;;;;;;4388985;32;20093;-74
2023/05/12 10:33:42;;;;;;;0.40;0.40;;;24.00;64.80;;;;;;4390661;32;20226;-76
2023/05/12 10:36:17;;;;;;;2.80;0.88;;;23.60;65.30;;;;;;4381816;32;20109;-75
2023/05/12 10:38:42;;;;;;;0.57;0.57;;;23.40;65.70;;;;;;4377132;32;20106;-77
2023/05/12 10:41:08;;;;;;;0.52;0.52;;;23.30;66.60;;;;;;4382481;32;20117;-75
2023/05/12 10:43:40;;;;;;;0.40;0.40;;;23.60;67.30;;;;;;4387737;32;20157;-75
2023/05/12 10:46:13;;;;;;;0.30;0.30;;;24.20;67.00;;;;;;4376239;32;20113;-76
2023/05/12 10:48:57;;;;;;;0.30;0.30;;;24.50;65.80;;;;;;4380998;32;20516;-75
2023/05/12 10:51:25;;;;;;;0.30;0.30;;;24.60;65.50;;;;;;4353921;32;21479;-77
2023/05/12 10:53:52;;;;;;;0.57;0.57;;;24.80;64.20;;;;;;4372790;32;20404;-76
2023/05/12 10:56:23;;;;;;;0.25;0.25;;;24.50;64.80;;;;;;4351644;32;20115;-75
2023/05/12 10:59:04;;;;;;;;;;;24.00;67.50;;;;;;4349033;32;20105;-75
2023/05/12 11:01:31;;;;;;;0.40;0.40;;;23.80;68.20;;;;;;4361387;32;19969;-75
2023/05/12 11:04:08;;;;;;;0.50;0.50;;;23.70;66.60;;;;;;4373005;32;20319;-75
2023/05/12 11:06:33;;;;;;;0.37;0.37;;;23.90;66.50;;;;;;4359247;32;20122;-75
2023/05/12 11:08:59;;;;;;;0.50;0.50;;;24.30;66.60;;;;;;4363129;32;20890;-77
2023/05/12 11:11:25;;;;;;;3.87;1.08;;;24.50;65.60;;;;;;4355916;32;20171;-76
2023/05/12 11:13:51;;;;;;;0.43;0.43;;;24.70;64.80;;;;;;4360327;32;20667;-75
2023/05/12 11:16:16;;;;;;;0.52;0.50;;;24.90;63.80;;;;;;4367176;32;20082;-76
2023/05/12 11:18:42;;;;;;;0.30;0.30;;;25.00;62.50;;;;;;4381333;32;20541;-76
2023/05/12 11:21:10;;;;;;;0.30;0.30;;;24.90;63.30;;;;;;4377488;32;20105;-79
2023/05/12 11:23:36;;;;;;;5.70;1.62;;;24.60;64.50;;;;;;4364128;32;20202;-76
2023/05/12 11:26:03;;;;;;;0.50;0.50;;;24.70;63.60;;;;;;4363237;32;20089;-78
2023/05/12 11:28:38;;;;;;;0.65;0.40;;;24.50;64.00;;;;;;4368230;32;20082;-78
2023/05/12 11:31:04;;;;;;;0.55;0.55;;;24.30;62.60;;;;;;4371320;32;21548;-75
2023/05/12 11:33:29;;;;;;;0.20;0.20;;;24.10;63.60;;;;;;4364520;32;20082;-78
2023/05/12 11:35:55;;;;;;;0.30;0.30;;;24.70;60.40;;;;;;4371318;32;20566;-76
2023/05/12 11:38:23;;;;;;;0.70;0.60;;;25.20;59.50;;;;;;4359092;32;20105;-76
2023/05/12 11:40:49;;;;;;;0.40;0.40;;;25.40;60.20;;;;;;4364993;32;20364;-76
2023/05/12 11:43:19;;;;;;;0.80;0.40;;;26.00;59.80;;;;;;4364430;32;20545;-76
2023/05/12 11:45:45;;;;;;;2.05;0.93;;;26.30;60.70;;;;;;4373930;32;106434;-76
2023/05/12 11:48:13;;;;;;;0.10;0.10;;;26.70;60.80;;;;;;4378800;32;20191;-76
2023/05/12 11:50:42;;;;;;;0.40;0.20;;;27.10;56.60;;;;;;4366996;32;20173;-76
2023/05/12 11:53:13;;;;;;;0.20;0.20;;;27.20;56.50;;;;;;4385278;32;20122;-74
2023/05/12 11:55:55;;;;;;;0.35;0.17;;;27.50;56.40;;;;;;4386947;32;20094;-74
2023/05/12 11:58:29;;;;;;;2.08;0.55;;;27.70;55.60;;;;;;4378731;32;20605;-76
2023/05/12 12:00:56;;;;;;;1.12;0.60;;;28.10;58.70;;;;;;4378256;32;20167;-75
2023/05/12 12:03:22;;;;;;;0.00;0.00;;;28.10;54.30;;;;;;4382575;32;20093;-76
2023/05/12 12:06:08;;;;;;;0.20;0.20;;;28.10;54.20;;;;;;4380683;32;20065;-74
2023/05/12 12:08:37;;;;;;;0.10;0.10;;;28.40;54.60;;;;;;4366177;32;20081;-76
2023/05/12 12:11:03;;;;;;;0.20;0.20;;;28.80;54.60;;;;;;4381652;32;20712;-75
2023/05/12 12:13:28;;;;;;;0.10;0.10;;;28.70;52.80;;;;;;4385701;32;20366;-76
2023/05/12 12:15:54;;;;;;;0.47;0.32;;;28.60;53.10;;;;;;4389691;32;20137;-74
2023/05/12 12:18:19;;;;;;;0.10;0.10;;;28.30;53.10;;;;;;4388111;32;20797;-75
2023/05/12 12:20:46;;;;;;;2.95;0.55;;;28.00;53.10;;;;;;4394364;32;20069;-72
2023/05/12 12:23:11;;;;;;;0.25;0.25;;;28.40;54.50;;;;;;4390342;32;20607;-73
2023/05/12 12:25:37;;;;;;;2.85;0.55;;;29.10;53.00;;;;;;4386558;32;20089;-76
2023/05/12 12:28:03;;;;;;;0.10;0.10;;;29.80;52.70;;;;;;4382648;32;20117;-74
2023/05/12 12:30:30;;;;;;;19.95;1.67;;;29.50;52.50;;;;;;4383018;32;20445;-76
2023/05/12 12:32:56;;;;;;;0.40;0.32;;;29.60;52.70;;;;;;4385962;32;20207;-75
2023/05/12 12:35:23;;;;;;;0.25;0.25;;;29.50;52.10;;;;;;4385221;32;20081;-74
2023/05/12 12:37:50;;;;;;;0.15;0.15;;;29.30;51.90;;;;;;4389093;32;20616;-74
2023/05/12 12:40:17;;;;;;;0.10;0.10;;;29.40;52.60;;;;;;4390150;32;20147;-74
2023/05/12 12:42:43;;;;;;;0.10;0.10;;;29.50;51.80;;;;;;4393425;32;20066;-73
2023/05/12 12:45:08;;;;;;;1.75;0.68;;;28.40;52.00;;;;;;4394328;32;20475;-73
2023/05/12 12:47:34;;;;;;;0.65;0.30;;;28.10;53.10;;;;;;4391779;32;20188;-74